Flight Track Log - Related Links

Times and Time Zones

All times are in EDT time to prevent confusion due to time zone crossing. See the WEW1540 flight status page for this flight to view local times or setup timezone preferences in your user account.

Time Position Orientation Groundspeed Altitude Reporting Facility
EDT Latitude Longitude Course Direction KTS MPH feet Rate Location/Type
Tue 08:07:45 PM 50.3000 -107.4167 86° East 150 173 9,100  Level Winnipeg Center
Tue 08:08:45 PM 50.3333 -107.3500 52° Northeast 170 196 9,100  Level Winnipeg Center
Tue 08:09:45 PM 50.3333 -107.2667 90° East 180 207 9,100  Level Winnipeg Center
Tue 08:10:00 PM 50.3263 -107.1256 85° East  Level FlightAware Approximate
Tue 08:10:45 PM 50.3333 -107.1833 90° East 190 219 9,100  Level Winnipeg Center
Tue 08:11:00 PM 50.3298 -107.0543 86° East  Level FlightAware Approximate
Tue 08:11:45 PM 50.3167 -107.1000 107° East 190 219 9,100  Level Winnipeg Center
Tue 08:12:00 PM 50.3333 -106.9830 86° East  Level FlightAware Approximate
Tue 08:12:45 PM 50.3500 -107.0333 52° Northeast 190 219 9,100  Level Winnipeg Center
Tue 08:13:45 PM 50.3333 -106.9500 107° East 190 219 9,100  Level Winnipeg Center
Tue 08:14:45 PM 50.3333 -106.8667 90° East 190 219 9,100  Level Winnipeg Center
Tue 08:15:45 PM 50.3500 -106.8000 69° East 190 219 9,100  Level Winnipeg Center
Tue 08:16:45 PM 50.3333 -106.6833 103° East 190 219 9,100  Level Winnipeg Center
Tue 08:17:45 PM 50.3500 -106.6000 73° East 190 219 9,100  Level Winnipeg Center
Tue 08:19:43 PM 50.3500 -106.4500 90° East 190 219 9,100  Level Winnipeg Center
Tue 08:20:43 PM 50.3667 -106.3667 73° East 190 219 9,100  Level Winnipeg Center
Tue 08:21:43 PM 50.3500 -106.3000 111° Southeast 190 219 9,100  Level Winnipeg Center
Tue 08:22:43 PM 50.3667 -106.2167 73° East 190 219 9,100 50 Level Winnipeg Center
Tue 08:23:43 PM 50.3667 -106.1167 90° East 190 219 9,200  Climbing Winnipeg Center
Tue 08:24:43 PM 50.3833 -106.0333 73° East 190 219 9,100 -50 Descending Winnipeg Center
Tue 08:25:43 PM 50.3833 -105.9500 90° East 190 219 9,100  Level Winnipeg Center
Tue 08:26:43 PM 50.3667 -105.8667 107° East 190 219 9,100  Level Winnipeg Center
Tue 08:27:43 PM 50.3833 -105.8000 69° East 190 219 9,100  Level Winnipeg Center
Tue 08:28:43 PM 50.3833 -105.7167 90° East 190 219 9,100 -250 Level Winnipeg Center
Tue 08:29:43 PM 50.3833 -105.6167 90° East 190 219 8,600 -500 Descending Winnipeg Center
Tue 08:30:43 PM 50.3833 -105.5333 90° East 200 230 8,100 -450 Descending Winnipeg Center
Tue 08:31:43 PM 50.3833 -105.4500 90° East 190 219 7,700 -450 Descending Winnipeg Center
Tue 08:32:43 PM 50.4000 -105.3833 69° East 190 219 7,200 -600 Descending Winnipeg Center
Tue 08:33:43 PM 50.4000 -105.3000 90° East 180 207 6,500 -650 Descending Winnipeg Center
Tue 08:34:43 PM 50.4000 -105.2167 90° East 190 219 5,900 -500 Descending Winnipeg Center
Tue 08:35:43 PM 50.4000 -105.1333 90° East 180 207 5,500 -500 Descending Winnipeg Center
Tue 08:36:43 PM 50.4000 -105.0667 90° East 170 196 4,900 -550 Descending Winnipeg Center
Tue 08:37:43 PM 50.3833 -104.9833 107° East 170 196 4,400 -550 Descending Winnipeg Center
Tue 08:38:43 PM 50.3833 -104.9000 90° East 170 196 3,800 -550 Descending Winnipeg Center
Tue 08:39:43 PM 50.3833 -104.8500 90° East 160 184 3,300 -350 Descending Winnipeg Center
Tue 08:40:43 PM 50.3667 -104.7667 107° East 150 173 3,100 -200 Descending Winnipeg Center
Tue 08:41:43 PM 50.3667 -104.7167 90° East 130 150 2,900 -150 Descending Winnipeg Center
Tue 08:42:43 PM 50.3500 -104.6667 118° Southeast 120 138 2,800 -200 Descending Winnipeg Center
Tue 08:43:43 PM 50.3833 -104.6333 33° Northeast 110 127 2,500 -350 Descending Winnipeg Center
Tue 08:44:43 PM 50.4000 -104.6667 308° West 110 127 2,100 -300 Descending Winnipeg Center
Tue 08:45:43 PM 50.4000 -104.6667 308° West 90 104 1,900 -200 Descending Winnipeg Center

Login

Don't have an account? Register now (free) for customized features, flight alerts, and more!